createdAt,value
2019-06-20T00:00:27.402Z,55
2019-06-20T00:01:30.009Z,56
2019-06-20T00:02:32.223Z,56
2019-06-20T00:03:34.706Z,55
2019-06-20T00:04:36.974Z,56
2019-06-20T00:05:39.107Z,56
2019-06-20T00:06:42.245Z,57
2019-06-20T00:07:44.450Z,56
2019-06-20T00:08:46.659Z,56
2019-06-20T00:09:52.610Z,56
2019-06-20T00:10:55.398Z,56
2019-06-20T00:11:57.710Z,56
2019-06-20T00:13:01.809Z,56
2019-06-20T00:14:04.710Z,57
2019-06-20T00:15:06.950Z,57
2019-06-20T00:16:09.142Z,57
2019-06-20T00:17:11.423Z,56
2019-06-20T00:18:13.625Z,56
2019-06-20T00:19:15.873Z,57
2019-06-20T00:20:18.063Z,57
2019-06-20T00:21:20.250Z,57
2019-06-20T00:22:22.501Z,57
2019-06-20T00:23:24.682Z,57
2019-06-20T00:24:27.481Z,57
2019-06-20T00:25:29.943Z,57
2019-06-20T00:26:32.207Z,57
2019-06-20T00:27:34.397Z,56
2019-06-20T00:28:36.966Z,57
2019-06-20T00:29:39.215Z,57
2019-06-20T00:30:42.093Z,57
2019-06-20T00:31:44.353Z,57
2019-06-20T00:32:46.562Z,58
2019-06-20T00:33:48.780Z,58
2019-06-20T00:34:50.978Z,58
2019-06-20T00:35:53.185Z,58
2019-06-20T00:36:55.435Z,59
2019-06-20T00:37:57.588Z,59
2019-06-20T00:38:59.829Z,60
2019-06-20T00:40:02.710Z,60
2019-06-20T00:41:05.469Z,60
2019-06-20T00:42:07.950Z,60
2019-06-20T00:43:19.563Z,60
2019-06-20T00:44:22.101Z,61
2019-06-20T00:45:24.304Z,62
2019-06-20T00:46:26.543Z,60
2019-06-20T00:47:29.078Z,61
2019-06-20T00:48:31.264Z,62
2019-06-20T00:49:33.868Z,62
2019-06-20T00:50:36.321Z,63
2019-06-20T00:51:39.214Z,63
2019-06-20T00:52:41.693Z,62
2019-06-20T00:53:44.324Z,62
2019-06-20T00:54:46.518Z,63
2019-06-20T00:55:48.689Z,61
2019-06-20T00:56:51.287Z,61
2019-06-20T00:57:53.702Z,61
2019-06-20T00:58:55.959Z,62
2019-06-20T00:59:58.528Z,62
2019-06-20T01:01:01.027Z,62
2019-06-20T01:02:03.980Z,61
2019-06-20T01:03:07.247Z,63
2019-06-20T01:04:10.018Z,63
2019-06-20T01:05:12.507Z,62
2019-06-20T01:06:15.333Z,62
2019-06-20T01:07:17.815Z,63
2019-06-20T01:08:19.984Z,63
2019-06-20T01:09:22.159Z,63
2019-06-20T01:10:24.356Z,62
2019-06-20T01:11:26.534Z,63
2019-06-20T01:12:28.739Z,63
2019-06-20T01:13:35.631Z,63
2019-06-20T01:14:38.304Z,62
2019-06-20T01:15:41.214Z,62
2019-06-20T01:16:43.922Z,62
2019-06-20T01:17:46.509Z,62
2019-06-20T01:18:49.070Z,63
2019-06-20T01:19:51.261Z,62
2019-06-20T01:20:53.844Z,62
2019-06-20T01:21:56.045Z,61
2019-06-20T01:22:58.497Z,62
2019-06-20T01:24:01.547Z,63
2019-06-20T01:25:03.716Z,62
2019-06-20T01:26:06.875Z,62
2019-06-20T01:27:09.091Z,62
2019-06-20T01:28:11.666Z,62
2019-06-20T01:29:14.643Z,63
2019-06-20T01:30:16.844Z,64
2019-06-20T01:31:19.102Z,63
2019-06-20T01:32:21.582Z,62
2019-06-20T01:33:24.366Z,63
2019-06-20T01:34:26.558Z,62
2019-06-20T01:35:29.034Z,64
2019-06-20T01:36:32.055Z,64
2019-06-20T01:37:34.257Z,63
2019-06-20T01:38:36.524Z,64
2019-06-20T01:39:38.696Z,63
2019-06-20T01:40:41.057Z,64
2019-06-20T01:41:43.839Z,64
2019-06-20T01:42:46.019Z,64
2019-06-20T01:43:52.282Z,64
2019-06-20T01:44:54.730Z,64
2019-06-20T01:45:57.278Z,64
2019-06-20T01:46:59.467Z,64
2019-06-20T01:48:01.749Z,65
2019-06-20T01:49:04.630Z,65
2019-06-20T01:50:07.429Z,64
2019-06-20T01:51:09.982Z,64
2019-06-20T01:52:12.201Z,64
2019-06-20T01:53:14.763Z,64
2019-06-20T01:54:17.291Z,65
2019-06-20T01:55:19.483Z,66
2019-06-20T01:56:21.676Z,65
2019-06-20T01:57:23.921Z,65
2019-06-20T01:58:26.335Z,65
2019-06-20T01:59:28.547Z,65
2019-06-20T02:00:31.413Z,65
2019-06-20T02:01:33.604Z,65
2019-06-20T02:02:36.516Z,65
2019-06-20T02:03:39.068Z,65
2019-06-20T02:04:41.530Z,65
2019-06-20T02:05:44.202Z,66
2019-06-20T02:06:46.697Z,65
2019-06-20T02:07:48.878Z,65
2019-06-20T02:08:51.379Z,65
2019-06-20T02:09:53.976Z,65
2019-06-20T02:10:56.921Z,65
2019-06-20T02:11:59.106Z,65
2019-06-20T02:13:01.322Z,66
2019-06-20T02:14:08.480Z,66
2019-06-20T02:15:11.655Z,66
2019-06-20T02:16:13.889Z,66
2019-06-20T02:17:16.005Z,65
2019-06-20T02:18:18.564Z,66
2019-06-20T02:19:20.694Z,66
2019-06-20T02:20:23.335Z,67
2019-06-20T02:21:25.515Z,66
2019-06-20T02:22:27.789Z,66
2019-06-20T02:23:30.020Z,66
2019-06-20T02:24:32.210Z,66
2019-06-20T02:25:35.034Z,65
2019-06-20T02:26:37.211Z,65
2019-06-20T02:27:39.508Z,66
2019-06-20T02:28:41.709Z,67
2019-06-20T02:29:43.908Z,66
2019-06-20T02:30:46.482Z,66
2019-06-20T02:31:49.314Z,67
2019-06-20T02:32:52.450Z,66
2019-06-20T02:33:55.613Z,66
2019-06-20T02:34:58.892Z,66
2019-06-20T02:36:01.186Z,66
2019-06-20T02:37:03.817Z,67
2019-06-20T02:38:06.085Z,66
2019-06-20T02:39:08.348Z,66
2019-06-20T02:40:10.598Z,65
2019-06-20T02:41:12.800Z,66
2019-06-20T02:42:15.275Z,66
2019-06-20T02:43:17.861Z,66
2019-06-20T02:44:32.413Z,67
2019-06-20T02:45:34.607Z,66
2019-06-20T02:46:37.105Z,66
2019-06-20T02:47:39.594Z,66
2019-06-20T02:48:42.071Z,66
2019-06-20T02:49:44.993Z,67
2019-06-20T02:50:47.270Z,67
2019-06-20T02:51:49.450Z,66
2019-06-20T02:52:51.693Z,66
2019-06-20T02:53:53.874Z,65
2019-06-20T02:54:56.056Z,65
2019-06-20T02:55:58.834Z,65
2019-06-20T02:57:01.061Z,65
2019-06-20T02:58:03.924Z,65
2019-06-20T02:59:06.123Z,66
2019-06-20T03:00:08.656Z,66
2019-06-20T03:01:10.864Z,65
2019-06-20T03:02:13.044Z,66
2019-06-20T03:03:15.313Z,66
2019-06-20T03:04:17.765Z,66
2019-06-20T03:05:20.060Z,66
2019-06-20T03:06:22.239Z,66
2019-06-20T03:07:24.775Z,66
2019-06-20T03:08:27.646Z,66
2019-06-20T03:09:29.824Z,66
2019-06-20T03:10:32.012Z,66
2019-06-20T03:11:34.599Z,66
2019-06-20T03:12:36.849Z,66
2019-06-20T03:13:39.345Z,65
2019-06-20T03:14:46.953Z,65
2019-06-20T03:15:51.360Z,64
2019-06-20T03:16:53.537Z,65
2019-06-20T03:17:56.178Z,66
2019-06-20T03:18:58.932Z,66
2019-06-20T03:20:01.232Z,65
2019-06-20T03:21:03.456Z,65
2019-06-20T03:22:05.632Z,65
2019-06-20T03:23:08.294Z,65
2019-06-20T03:24:10.765Z,64
2019-06-20T03:25:13.321Z,64
2019-06-20T03:26:15.507Z,65
2019-06-20T03:27:17.773Z,64
2019-06-20T03:28:19.951Z,64
2019-06-20T03:29:22.163Z,65
2019-06-20T03:30:24.787Z,65
2019-06-20T03:31:27.302Z,65
2019-06-20T03:32:30.540Z,65
2019-06-20T03:33:33.352Z,64
2019-06-20T03:34:35.843Z,64
2019-06-20T03:35:37.978Z,64
2019-06-20T03:36:40.176Z,65
2019-06-20T03:37:42.348Z,64
2019-06-20T03:38:45.155Z,65
2019-06-20T03:39:47.646Z,64
2019-06-20T03:40:49.833Z,64
2019-06-20T03:41:52.314Z,64
2019-06-20T03:42:54.761Z,64
2019-06-20T03:44:00.318Z,64
2019-06-20T03:45:03.636Z,64
2019-06-20T03:46:05.840Z,64
2019-06-20T03:47:08.651Z,64
2019-06-20T03:48:10.845Z,64
2019-06-20T03:49:13.359Z,64
2019-06-20T03:50:16.113Z,64
2019-06-20T03:51:18.311Z,64
2019-06-20T03:52:20.563Z,64
2019-06-20T03:53:22.735Z,64
2019-06-20T03:54:25.426Z,64
2019-06-20T03:55:27.623Z,64
2019-06-20T03:56:29.803Z,64
2019-06-20T03:57:32.297Z,64
2019-06-20T03:58:34.476Z,64
2019-06-20T03:59:37.138Z,64
2019-06-20T04:00:39.332Z,64
2019-06-20T04:01:41.788Z,64
2019-06-20T04:02:44.293Z,64
2019-06-20T04:03:46.751Z,65
2019-06-20T04:04:49.006Z,64
2019-06-20T04:05:51.500Z,64
2019-06-20T04:06:53.742Z,64
2019-06-20T04:07:56.324Z,64
2019-06-20T04:08:58.815Z,64
2019-06-20T04:10:01.404Z,64
2019-06-20T04:11:04.177Z,66
2019-06-20T04:12:06.442Z,65
2019-06-20T04:13:08.901Z,65
2019-06-20T04:14:11.127Z,65
2019-06-20T04:15:20.930Z,64
2019-06-20T04:16:23.119Z,64
2019-06-20T04:17:25.243Z,64
2019-06-20T04:18:27.520Z,64
2019-06-20T04:19:30.057Z,64
2019-06-20T04:20:32.522Z,64
2019-06-20T04:21:34.720Z,64
2019-06-20T04:22:36.914Z,65
2019-06-20T04:23:39.113Z,65
2019-06-20T04:24:41.326Z,65
2019-06-20T04:25:43.505Z,64
2019-06-20T04:26:45.757Z,64
2019-06-20T04:27:48.933Z,63
2019-06-20T04:28:51.846Z,64
2019-06-20T04:29:54.265Z,63
2019-06-20T04:30:56.761Z,63
2019-06-20T04:31:59.391Z,63
2019-06-20T04:33:01.865Z,63
2019-06-20T04:34:04.463Z,64
2019-06-20T04:35:06.702Z,64
2019-06-20T04:36:09.144Z,63
2019-06-20T04:37:11.404Z,64
2019-06-20T04:38:13.887Z,64
2019-06-20T04:39:20.543Z,64
2019-06-20T04:40:23.039Z,64
2019-06-20T04:41:25.222Z,63
2019-06-20T04:42:27.794Z,63
2019-06-20T04:43:30.036Z,62
2019-06-20T04:44:32.329Z,63
2019-06-20T04:45:36.872Z,64
2019-06-20T04:46:39.268Z,64
2019-06-20T04:47:41.472Z,63
2019-06-20T04:48:43.652Z,62
2019-06-20T04:49:45.864Z,62
2019-06-20T04:50:48.463Z,63
2019-06-20T04:51:50.686Z,63
2019-06-20T04:52:53.150Z,63
2019-06-20T04:53:55.455Z,62
2019-06-20T04:54:57.640Z,62
2019-06-20T04:56:00.557Z,62
2019-06-20T04:57:03.072Z,61
2019-06-20T04:58:05.648Z,61
2019-06-20T04:59:07.924Z,63
2019-06-20T05:00:10.491Z,62
2019-06-20T05:01:12.715Z,62
2019-06-20T05:02:15.976Z,61
2019-06-20T05:03:18.193Z,60
2019-06-20T05:04:20.720Z,61
2019-06-20T05:05:22.923Z,61
2019-06-20T05:06:25.158Z,61
2019-06-20T05:07:27.354Z,61
2019-06-20T05:08:29.802Z,61
2019-06-20T05:09:32.049Z,60
2019-06-20T05:10:34.876Z,60
2019-06-20T05:11:37.127Z,60
2019-06-20T05:12:39.320Z,60
2019-06-20T05:13:41.944Z,60
2019-06-20T05:14:44.142Z,59
2019-06-20T05:15:54.561Z,59
2019-06-20T05:16:57.088Z,60
2019-06-20T05:17:59.250Z,60
2019-06-20T05:19:01.943Z,59
2019-06-20T05:20:04.737Z,59
2019-06-20T05:21:07.220Z,60
2019-06-20T05:22:10.123Z,59
2019-06-20T05:23:12.385Z,59
2019-06-20T05:24:15.320Z,58
2019-06-20T05:25:17.447Z,59
2019-06-20T05:26:20.036Z,60
2019-06-20T05:27:22.557Z,58
2019-06-20T05:28:25.080Z,59
2019-06-20T05:29:27.288Z,58
2019-06-20T05:30:30.411Z,58
2019-06-20T05:31:32.638Z,58
2019-06-20T05:32:34.832Z,58
2019-06-20T05:33:37.729Z,58
2019-06-20T05:34:39.903Z,58
2019-06-20T05:35:43.026Z,58
2019-06-20T05:36:45.805Z,58
2019-06-20T05:37:48.301Z,58
2019-06-20T05:38:51.275Z,58
2019-06-20T05:39:53.453Z,59
2019-06-20T05:40:56.091Z,58
2019-06-20T05:41:59.052Z,58
2019-06-20T05:43:01.277Z,58
2019-06-20T05:44:03.952Z,58
2019-06-20T05:45:06.164Z,59
2019-06-20T05:46:12.047Z,59
2019-06-20T05:47:15.033Z,60
2019-06-20T05:48:17.319Z,59
2019-06-20T05:49:19.940Z,59
2019-06-20T05:50:22.524Z,58
2019-06-20T05:51:25.239Z,57
2019-06-20T05:52:27.445Z,57
2019-06-20T05:53:29.961Z,58
2019-06-20T05:54:32.135Z,58
2019-06-20T05:55:34.722Z,58
2019-06-20T05:56:37.576Z,58
2019-06-20T05:57:40.795Z,58
2019-06-20T05:58:43.031Z,59
2019-06-20T05:59:45.579Z,59
2019-06-20T06:00:48.124Z,59
2019-06-20T06:01:50.592Z,59
2019-06-20T06:02:52.805Z,59
2019-06-20T06:03:55.397Z,58
2019-06-20T06:04:57.597Z,59
2019-06-20T06:06:00.426Z,59
2019-06-20T06:07:03.892Z,60
2019-06-20T06:08:06.520Z,59
2019-06-20T06:09:09.838Z,60
2019-06-20T06:10:12.064Z,60
2019-06-20T06:11:14.450Z,60
2019-06-20T06:12:16.935Z,61
2019-06-20T06:13:19.170Z,60
2019-06-20T06:14:21.678Z,60
2019-06-20T06:15:25.081Z,61
2019-06-20T06:16:29.299Z,61
2019-06-20T06:17:31.976Z,60
2019-06-20T06:18:34.647Z,60
2019-06-20T06:19:36.848Z,59
2019-06-20T06:20:39.675Z,59
2019-06-20T06:21:42.263Z,59
2019-06-20T06:22:45.983Z,59
2019-06-20T06:23:48.491Z,59
2019-06-20T06:24:51.412Z,59
2019-06-20T06:25:53.633Z,59
2019-06-20T06:27:01.409Z,59
2019-06-20T06:28:04.628Z,59
2019-06-20T06:29:06.792Z,59
2019-06-20T06:30:09.267Z,58
2019-06-20T06:31:11.885Z,58
2019-06-20T06:32:14.113Z,58
2019-06-20T06:33:17.166Z,59
2019-06-20T06:34:23.114Z,59
2019-06-20T06:35:26.344Z,58
2019-06-20T06:36:28.832Z,59
2019-06-20T06:37:31.051Z,58
2019-06-20T06:38:33.236Z,59
2019-06-20T06:39:36.449Z,59
2019-06-20T06:40:39.029Z,59
2019-06-20T06:41:41.282Z,59
2019-06-20T06:42:43.788Z,58
2019-06-20T06:43:46.330Z,58
2019-06-20T06:44:48.521Z,58
2019-06-20T06:45:51.215Z,58
2019-06-20T06:47:00.547Z,58
2019-06-20T06:48:02.749Z,58
2019-06-20T06:49:04.921Z,57
2019-06-20T06:50:07.194Z,57
2019-06-20T06:51:09.373Z,57
2019-06-20T06:52:11.846Z,57
2019-06-20T06:53:14.432Z,57
2019-06-20T06:54:17.047Z,57
2019-06-20T06:55:19.320Z,57
2019-06-20T06:56:21.514Z,57
2019-06-20T06:57:24.032Z,56
2019-06-20T06:58:26.237Z,56
2019-06-20T06:59:28.455Z,57
2019-06-20T07:00:31.979Z,57
2019-06-20T07:01:34.562Z,57
2019-06-20T07:02:37.115Z,57
2019-06-20T07:03:39.300Z,58
2019-06-20T07:04:41.892Z,57
2019-06-20T07:05:44.480Z,57
2019-06-20T07:06:47.347Z,57
2019-06-20T07:07:50.254Z,57
2019-06-20T07:08:53.012Z,57
2019-06-20T07:09:55.285Z,57
2019-06-20T07:10:57.778Z,57
2019-06-20T07:12:00.685Z,57
2019-06-20T07:13:03.241Z,57
2019-06-20T07:14:06.362Z,56
2019-06-20T07:15:09.197Z,56
2019-06-20T07:16:11.389Z,57
2019-06-20T07:17:13.864Z,57
2019-06-20T07:18:16.066Z,57
2019-06-20T07:19:18.243Z,57
2019-06-20T07:20:20.892Z,56
2019-06-20T07:21:23.692Z,57
2019-06-20T07:22:25.902Z,57
2019-06-20T07:23:28.100Z,57
2019-06-20T07:24:31.277Z,58
2019-06-20T07:25:33.556Z,59
2019-06-20T07:26:35.741Z,58
2019-06-20T07:27:38.294Z,58
2019-06-20T07:28:40.489Z,57
2019-06-20T07:29:42.741Z,57
2019-06-20T07:30:44.933Z,58
2019-06-20T07:31:48.067Z,58
2019-06-20T07:32:51.016Z,58
2019-06-20T07:33:53.455Z,58
2019-06-20T07:34:55.750Z,58
2019-06-20T07:35:58.275Z,57
2019-06-20T07:37:01.511Z,58
2019-06-20T07:38:03.713Z,57
2019-06-20T07:39:06.777Z,57
2019-06-20T07:40:09.309Z,58
2019-06-20T07:41:11.529Z,57
2019-06-20T07:42:14.347Z,56
2019-06-20T07:43:16.488Z,56
2019-06-20T07:44:19.046Z,56
2019-06-20T07:45:21.214Z,56
2019-06-20T07:46:23.695Z,54
2019-06-20T07:47:26.690Z,55
2019-06-20T07:48:29.685Z,54
2019-06-20T07:49:31.960Z,54
2019-06-20T07:50:34.514Z,55
2019-06-20T07:51:37.343Z,54
2019-06-20T07:52:39.547Z,54
2019-06-20T07:53:42.042Z,54
2019-06-20T07:54:45.278Z,54
2019-06-20T07:55:47.565Z,54
2019-06-20T07:56:50.498Z,53
2019-06-20T07:57:52.700Z,53
2019-06-20T07:58:54.845Z,52
2019-06-20T07:59:57.667Z,52
2019-06-20T08:01:00.184Z,52
2019-06-20T08:02:02.362Z,52
2019-06-20T08:03:05.096Z,52
2019-06-20T08:04:07.649Z,53
2019-06-20T08:05:10.272Z,52
2019-06-20T08:06:12.527Z,52
2019-06-20T08:07:14.881Z,52
2019-06-20T08:08:17.120Z,51
2019-06-20T08:09:22.959Z,52
2019-06-20T08:10:25.168Z,51
2019-06-20T08:11:27.647Z,50
2019-06-20T08:12:29.834Z,50
2019-06-20T08:13:32.691Z,50
2019-06-20T08:14:35.063Z,50
2019-06-20T08:15:37.307Z,50
2019-06-20T08:16:39.559Z,51
2019-06-20T08:17:42.597Z,50
2019-06-20T08:18:45.480Z,50
2019-06-20T08:19:48.031Z,51
2019-06-20T08:20:50.612Z,51
2019-06-20T08:21:53.121Z,51
2019-06-20T08:22:55.374Z,51
2019-06-20T08:23:58.256Z,51
2019-06-20T08:25:03.219Z,51
2019-06-20T08:26:07.146Z,51
2019-06-20T08:27:09.395Z,51
2019-06-20T08:28:11.889Z,53
2019-06-20T08:29:22.635Z,52
2019-06-20T08:30:25.501Z,51
2019-06-20T08:31:28.118Z,51
2019-06-20T08:32:30.326Z,50
2019-06-20T08:33:32.818Z,50
2019-06-20T08:34:35.400Z,50
2019-06-20T08:35:37.619Z,51
2019-06-20T08:36:40.564Z,51
2019-06-20T08:37:42.824Z,51
2019-06-20T08:38:45.051Z,50
2019-06-20T08:39:47.307Z,52
2019-06-20T08:40:49.794Z,51
2019-06-20T08:41:53.165Z,50
2019-06-20T08:43:02.349Z,51
2019-06-20T08:44:06.529Z,52
2019-06-20T08:45:09.192Z,50
2019-06-20T08:46:11.737Z,51
2019-06-20T08:47:14.441Z,51
2019-06-20T08:48:16.650Z,51
2019-06-20T08:49:18.908Z,51
2019-06-20T08:50:21.305Z,51
2019-06-20T08:51:23.441Z,51
2019-06-20T08:52:26.136Z,52
2019-06-20T08:53:28.333Z,51
2019-06-20T08:54:30.612Z,51
2019-06-20T08:55:33.092Z,50
2019-06-20T08:56:35.753Z,51
2019-06-20T08:57:37.969Z,51
2019-06-20T08:58:40.749Z,51
2019-06-20T08:59:43.034Z,50
2019-06-20T09:00:45.261Z,50
2019-06-20T09:01:48.141Z,50
2019-06-20T09:02:50.622Z,50
2019-06-20T09:03:56.668Z,49
2019-06-20T09:06:04.957Z,50
2019-06-20T09:07:07.249Z,50
2019-06-20T09:08:12.894Z,50
2019-06-20T09:09:15.538Z,51
2019-06-20T09:10:17.777Z,51
2019-06-20T09:11:20.829Z,50
2019-06-20T09:12:24.011Z,51
2019-06-20T09:13:26.492Z,50
2019-06-20T09:14:29.040Z,50
2019-06-20T09:15:31.940Z,51
2019-06-20T09:16:35.168Z,50
2019-06-20T09:17:37.396Z,50
2019-06-20T09:18:40.778Z,51
2019-06-20T09:19:43.019Z,51
2019-06-20T09:20:45.211Z,50
2019-06-20T09:21:47.499Z,50
2019-06-20T09:22:49.768Z,50
2019-06-20T09:23:56.126Z,50
2019-06-20T09:25:03.080Z,50
2019-06-20T09:26:06.021Z,50
2019-06-20T09:27:09.856Z,50
2019-06-20T09:28:12.439Z,50
2019-06-20T09:29:14.990Z,49
2019-06-20T09:30:17.277Z,50
2019-06-20T09:31:19.474Z,50
2019-06-20T09:32:22.517Z,50
2019-06-20T09:33:24.723Z,50
2019-06-20T09:34:27.356Z,50
2019-06-20T09:35:29.953Z,50
2019-06-20T09:36:32.199Z,50
2019-06-20T09:37:34.419Z,49
2019-06-20T09:38:36.603Z,49
2019-06-20T09:39:38.862Z,48
2019-06-20T09:40:41.308Z,49
2019-06-20T09:41:43.837Z,49
2019-06-20T09:42:47.747Z,48
2019-06-20T09:43:54.666Z,48
2019-06-20T09:44:58.610Z,48
2019-06-20T09:46:03.293Z,48
2019-06-20T09:47:05.956Z,48
2019-06-20T09:48:08.908Z,48
2019-06-20T09:49:11.150Z,50
2019-06-20T09:50:13.643Z,50
2019-06-20T09:51:15.929Z,51
2019-06-20T09:52:18.412Z,50
2019-06-20T09:53:21.285Z,50
2019-06-20T09:54:23.533Z,50
2019-06-20T09:55:26.393Z,50
2019-06-20T09:56:29.660Z,50
2019-06-20T09:57:32.237Z,50
2019-06-20T09:58:34.916Z,50
2019-06-20T09:59:37.749Z,50
2019-06-20T10:00:40.507Z,49
2019-06-20T10:01:43.115Z,49
2019-06-20T10:02:54.364Z,48
2019-06-20T10:03:59.863Z,49
2019-06-20T10:05:03.558Z,49
2019-06-20T10:06:15.611Z,50
2019-06-20T10:07:17.805Z,48
2019-06-20T10:08:20.022Z,48
2019-06-20T10:09:22.798Z,48
2019-06-20T10:10:25.023Z,49
2019-06-20T10:11:27.258Z,49
2019-06-20T10:12:29.518Z,50
2019-06-20T10:13:33.812Z,50
2019-06-20T10:14:36.216Z,51
2019-06-20T10:15:38.724Z,51
2019-06-20T10:16:56.879Z,50
2019-06-20T10:17:59.757Z,50
2019-06-20T10:19:02.250Z,51
2019-06-20T10:20:04.806Z,51
2019-06-20T10:21:07.660Z,52
2019-06-20T10:22:10.188Z,50
2019-06-20T10:23:12.832Z,50
2019-06-20T10:24:15.357Z,50
2019-06-20T10:25:17.578Z,50
2019-06-20T10:26:20.447Z,50
2019-06-20T10:27:22.657Z,50
2019-06-20T10:28:24.860Z,50
2019-06-20T10:29:27.034Z,50
2019-06-20T10:30:29.239Z,51
2019-06-20T10:31:31.815Z,50
2019-06-20T10:32:34.006Z,51
2019-06-20T10:33:36.565Z,51
2019-06-20T10:34:39.319Z,52
2019-06-20T10:35:41.546Z,52
2019-06-20T10:36:48.527Z,53
2019-06-20T10:37:54.011Z,52
2019-06-20T10:38:57.771Z,52
2019-06-20T10:40:00.289Z,52
2019-06-20T10:41:02.540Z,53
2019-06-20T10:42:04.770Z,52
2019-06-20T10:43:06.981Z,51
2019-06-20T10:44:09.272Z,54
2019-06-20T10:45:11.756Z,53
2019-06-20T10:46:14.243Z,52
2019-06-20T10:47:35.164Z,52
2019-06-20T10:48:38.640Z,52
2019-06-20T10:49:47.969Z,53
2019-06-20T10:50:51.840Z,53
2019-06-20T10:51:54.802Z,51
2019-06-20T10:52:56.995Z,50
2019-06-20T10:53:59.351Z,51
2019-06-20T10:55:01.980Z,52
2019-06-20T10:56:04.563Z,51
2019-06-20T10:57:06.762Z,52
2019-06-20T10:58:09.651Z,52
2019-06-20T10:59:12.597Z,52
2019-06-20T11:00:32.783Z,51
2019-06-20T11:01:34.913Z,51
2019-06-20T11:02:37.405Z,51
2019-06-20T11:03:43.921Z,51
2019-06-20T11:04:47.930Z,50
2019-06-20T11:05:51.086Z,50
2019-06-20T11:06:53.247Z,50
2019-06-20T11:07:55.506Z,49
2019-06-20T11:08:58.076Z,48
2019-06-20T11:10:00.275Z,48
2019-06-20T11:11:03.201Z,48
2019-06-20T11:12:05.996Z,49
2019-06-20T11:13:09.229Z,50
2019-06-20T11:14:11.796Z,49
2019-06-20T11:15:14.774Z,48
2019-06-20T11:16:16.968Z,49
2019-06-20T11:17:19.155Z,49
2019-06-20T11:18:21.405Z,50
2019-06-20T11:19:23.622Z,49
2019-06-20T11:20:25.851Z,48
2019-06-20T11:21:28.065Z,48
2019-06-20T11:22:30.270Z,48
2019-06-20T11:23:32.753Z,47
2019-06-20T11:24:34.969Z,49
2019-06-20T11:25:43.606Z,48
2019-06-20T11:26:48.317Z,48
2019-06-20T11:27:50.496Z,48
2019-06-20T11:28:53.712Z,46
2019-06-20T11:29:56.521Z,47
2019-06-20T11:31:01.978Z,47
2019-06-20T11:32:04.596Z,47
2019-06-20T11:33:06.872Z,47
2019-06-20T11:34:09.077Z,47
2019-06-20T11:35:11.313Z,47
2019-06-20T11:36:14.435Z,46
2019-06-20T11:37:17.215Z,46
2019-06-20T11:38:19.426Z,46
2019-06-20T11:39:21.886Z,46
2019-06-20T11:40:24.164Z,46
2019-06-20T11:41:26.369Z,46
2019-06-20T11:42:28.922Z,45
2019-06-20T11:43:31.123Z,44
2019-06-20T11:44:37.371Z,44
2019-06-20T11:45:41.264Z,43
2019-06-20T11:46:43.555Z,44
2019-06-20T11:47:48.156Z,43
2019-06-20T11:48:50.359Z,43
2019-06-20T11:49:53.173Z,44
2019-06-20T11:50:55.695Z,44
2019-06-20T11:51:57.831Z,44
2019-06-20T11:53:00.110Z,43
2019-06-20T11:54:02.318Z,43
2019-06-20T11:55:04.990Z,43
2019-06-20T11:56:07.507Z,45
2019-06-20T11:57:10.142Z,43
2019-06-20T11:58:12.711Z,43
2019-06-20T11:59:14.909Z,42
2019-06-20T12:00:17.132Z,43
2019-06-20T12:01:33.991Z,43
2019-06-20T12:02:36.770Z,43
2019-06-20T12:03:42.787Z,44
2019-06-20T12:04:47.296Z,45
2019-06-20T12:05:50.688Z,45
2019-06-20T12:06:52.863Z,45
2019-06-20T12:07:55.756Z,45
2019-06-20T12:08:58.023Z,45
2019-06-20T12:10:00.629Z,44
2019-06-20T12:11:03.513Z,44
2019-06-20T12:12:06.914Z,44
2019-06-20T12:13:09.543Z,43
2019-06-20T12:14:11.766Z,44
2019-06-20T12:15:14.357Z,45
2019-06-20T12:16:16.839Z,44
2019-06-20T12:17:19.089Z,45
2019-06-20T12:18:21.776Z,45
2019-06-20T12:19:24.383Z,44
2019-06-20T12:20:26.577Z,44
2019-06-20T12:21:28.822Z,44
2019-06-20T12:22:31.373Z,43
2019-06-20T12:23:33.948Z,43
2019-06-20T12:24:36.202Z,43
2019-06-20T12:25:44.435Z,44
2019-06-20T12:26:48.931Z,45
2019-06-20T12:27:51.675Z,45
2019-06-20T12:28:54.584Z,45
2019-06-20T12:29:57.593Z,44
2019-06-20T12:31:00.513Z,46
2019-06-20T12:32:03.370Z,45
2019-06-20T12:33:06.264Z,44
2019-06-20T12:34:10.126Z,45
2019-06-20T12:35:13.690Z,45
2019-06-20T12:36:16.429Z,45
2019-06-20T12:37:19.674Z,45
2019-06-20T12:38:22.295Z,47
2019-06-20T12:39:24.561Z,46
2019-06-20T12:40:27.105Z,47
2019-06-20T12:41:30.748Z,47
2019-06-20T12:42:33.851Z,47
2019-06-20T12:43:41.766Z,47
2019-06-20T12:44:46.625Z,47
2019-06-20T12:45:51.645Z,46
2019-06-20T12:46:54.202Z,46
2019-06-20T12:47:56.388Z,46
2019-06-20T12:48:59.028Z,46
2019-06-20T12:50:01.995Z,46
2019-06-20T12:51:05.211Z,46
2019-06-20T12:52:07.949Z,47
2019-06-20T12:53:10.622Z,47
2019-06-20T12:54:13.263Z,48
2019-06-20T12:55:15.970Z,47
2019-06-20T12:56:18.264Z,46
2019-06-20T12:57:20.922Z,47
2019-06-20T12:58:23.133Z,47
2019-06-20T12:59:26.044Z,47
2019-06-20T13:00:28.243Z,47
2019-06-20T13:01:49.771Z,47
2019-06-20T13:02:53.213Z,47
2019-06-20T13:03:55.506Z,46
2019-06-20T13:04:58.061Z,47
2019-06-20T13:06:00.411Z,46
2019-06-20T13:07:02.927Z,47
2019-06-20T13:08:05.858Z,46
2019-06-20T13:09:08.828Z,47
2019-06-20T13:10:11.103Z,47
2019-06-20T13:11:13.687Z,47
2019-06-20T13:12:16.637Z,46
2019-06-20T13:13:19.161Z,47
2019-06-20T13:14:21.869Z,47
2019-06-20T13:15:24.070Z,46
2019-06-20T13:16:26.343Z,46
2019-06-20T13:17:28.993Z,46
2019-06-20T13:18:31.306Z,47
2019-06-20T13:19:33.578Z,46
2019-06-20T13:20:35.900Z,48
2019-06-20T13:21:44.426Z,47
2019-06-20T13:22:50.116Z,45
2019-06-20T13:23:52.406Z,46
2019-06-20T13:24:54.707Z,46
2019-06-20T13:25:57.328Z,46
2019-06-20T13:26:59.594Z,47
2019-06-20T13:28:02.177Z,47
2019-06-20T13:29:05.760Z,47
2019-06-20T13:30:08.415Z,46
2019-06-20T13:31:11.004Z,46
2019-06-20T13:32:13.267Z,46
2019-06-20T13:33:15.663Z,46
2019-06-20T13:34:17.889Z,45
2019-06-20T13:35:20.634Z,46
2019-06-20T13:36:22.843Z,46
2019-06-20T13:37:25.159Z,46
2019-06-20T13:38:27.840Z,48
2019-06-20T13:39:31.054Z,48
2019-06-20T13:40:33.785Z,48
2019-06-20T13:41:36.640Z,47
2019-06-20T13:42:47.594Z,47
2019-06-20T13:43:51.402Z,47
2019-06-20T13:44:54.063Z,47
2019-06-20T13:45:56.396Z,46
2019-06-20T13:46:59.269Z,45
2019-06-20T13:48:01.885Z,43
2019-06-20T13:49:05.561Z,45
2019-06-20T13:50:08.042Z,45
2019-06-20T13:51:11.339Z,46
2019-06-20T13:52:13.878Z,46
2019-06-20T13:53:16.578Z,45
2019-06-20T13:54:19.838Z,46
2019-06-20T13:55:22.233Z,44
2019-06-20T13:56:24.468Z,44
2019-06-20T13:57:26.694Z,43
2019-06-20T13:58:28.860Z,41
2019-06-20T13:59:31.092Z,40
2019-06-20T14:00:33.701Z,41
2019-06-20T14:01:36.071Z,40
2019-06-20T14:02:46.874Z,42
2019-06-20T14:03:51.761Z,42
2019-06-20T14:04:54.520Z,42
2019-06-20T14:05:56.694Z,40
2019-06-20T14:06:58.937Z,39
2019-06-20T14:08:01.149Z,38
2019-06-20T14:09:03.730Z,38
2019-06-20T14:10:06.332Z,38
2019-06-20T14:11:08.928Z,36
2019-06-20T14:12:11.408Z,37
2019-06-20T14:13:20.850Z,37
2019-06-20T14:14:23.049Z,36
2019-06-20T14:15:25.626Z,35
2019-06-20T14:16:27.905Z,36
2019-06-20T14:17:31.422Z,36
2019-06-20T14:18:33.918Z,37
2019-06-20T14:19:37.211Z,36
2019-06-20T14:20:39.709Z,36
2019-06-20T14:21:45.642Z,37
2019-06-20T14:22:52.364Z,37
2019-06-20T14:23:54.809Z,37
2019-06-20T14:24:57.005Z,37
2019-06-20T14:25:59.621Z,37
2019-06-20T14:27:03.248Z,37
2019-06-20T14:28:05.751Z,39
2019-06-20T14:29:08.107Z,38
2019-06-20T14:30:10.313Z,38
2019-06-20T14:31:12.581Z,39
2019-06-20T14:32:23.451Z,38
2019-06-20T14:33:25.630Z,39
2019-06-20T14:34:27.856Z,38
2019-06-20T14:35:30.141Z,39
2019-06-20T14:36:32.772Z,39
2019-06-20T14:37:35.612Z,39
2019-06-20T14:38:38.642Z,40
2019-06-20T14:39:41.160Z,39
2019-06-20T14:40:48.648Z,38
2019-06-20T14:41:52.745Z,38
2019-06-20T14:42:55.318Z,37
2019-06-20T14:43:58.007Z,37
2019-06-20T14:45:00.246Z,36
2019-06-20T14:46:02.839Z,37
2019-06-20T14:47:07.230Z,38
2019-06-20T14:48:09.824Z,36
2019-06-20T14:49:12.088Z,36
2019-06-20T14:50:14.269Z,35
2019-06-20T14:51:16.590Z,35
2019-06-20T14:52:19.156Z,36
2019-06-20T14:53:21.418Z,37
2019-06-20T14:54:23.582Z,38
2019-06-20T14:55:25.784Z,38
2019-06-20T14:56:27.987Z,38
2019-06-20T14:57:30.221Z,37
2019-06-20T14:58:32.490Z,36